Time;durP1;ratioP1;P1;durP2;ratioP2;P2;SDS_P1;SDS_P2;PMS_P1;PMS_P2;Temp;Humidity;BMP_temperature;BMP_pressure;BME280_temperature;BME280_humidity;BME280_pressure;Samples;Min_cycle;Max_cycle;Signal;HPM_P1;HPM_P2
2021/09/19 00:00:51;;;;;;;4.43;3.00;;;15.40;84.20;;;;;;2061692;28;20589;-96
2021/09/19 00:02:10;;;;;;;3.83;2.90;;;15.40;84.40;;;;;;2061410;28;20042;-96
2021/09/19 00:03:30;;;;;;;3.65;2.40;;;15.30;84.40;;;;;;2070176;28;20038;-96
2021/09/19 00:04:50;;;;;;;4.18;3.10;;;15.30;84.40;;;;;;2069363;28;20046;-96
2021/09/19 00:06:09;;;;;;;3.70;2.70;;;15.30;84.50;;;;;;2060946;28;20050;-96
2021/09/19 00:07:28;;;;;;;4.10;2.65;;;15.30;84.60;;;;;;2060872;28;20030;-96
2021/09/19 00:08:47;;;;;;;4.30;2.97;;;15.30;84.70;;;;;;2062521;28;20046;-96
2021/09/19 00:10:09;;;;;;;4.05;2.75;;;15.30;84.70;;;;;;2062006;28;20042;-96
2021/09/19 00:11:28;;;;;;;3.30;2.58;;;15.30;84.80;;;;;;2057231;28;20039;-96
2021/09/19 00:12:48;;;;;;;4.57;2.90;;;15.30;84.80;;;;;;2075806;28;20160;-96
2021/09/19 00:14:07;;;;;;;3.22;2.50;;;15.20;84.80;;;;;;2073228;28;20049;-96
2021/09/19 00:15:28;;;;;;;4.03;2.78;;;15.30;84.90;;;;;;2064070;28;20581;-96
2021/09/19 00:16:48;;;;;;;5.05;2.90;;;15.20;84.90;;;;;;2067035;28;20074;-96
2021/09/19 00:18:07;;;;;;;4.28;2.88;;;15.20;85.00;;;;;;2077193;28;20026;-95
2021/09/19 00:19:26;;;;;;;3.85;2.55;;;15.20;85.00;;;;;;2069395;28;20042;-91
2021/09/19 00:20:46;;;;;;;3.90;2.50;;;15.20;85.00;;;;;;2067430;28;20033;-93
2021/09/19 00:22:06;;;;;;;3.60;2.80;;;15.20;85.10;;;;;;2058521;28;20054;-96
2021/09/19 00:23:25;;;;;;;3.85;2.63;;;15.20;85.10;;;;;;2072634;28;20046;-96
2021/09/19 00:24:44;;;;;;;4.05;2.92;;;15.20;85.20;;;;;;2066945;28;20424;-96
2021/09/19 00:26:04;;;;;;;3.92;2.75;;;15.20;85.30;;;;;;2047505;28;20050;-96
2021/09/19 00:27:23;;;;;;;4.88;2.97;;;15.10;85.30;;;;;;2056694;28;20062;-96
2021/09/19 00:28:42;;;;;;;4.88;3.20;;;15.10;85.30;;;;;;2058095;28;20031;-96
2021/09/19 00:30:04;;;;;;;3.83;2.90;;;15.10;85.40;;;;;;2051793;28;20047;-96
2021/09/19 00:31:24;;;;;;;3.67;2.67;;;15.10;85.50;;;;;;2080527;28;20089;-96
2021/09/19 00:32:43;;;;;;;4.22;2.70;;;15.10;85.50;;;;;;2082001;28;20034;-96
2021/09/19 00:34:03;;;;;;;4.32;2.80;;;15.10;85.50;;;;;;2058971;28;20098;-96
2021/09/19 00:35:22;;;;;;;4.00;2.70;;;15.10;85.50;;;;;;2055977;28;20038;-96
2021/09/19 00:36:42;;;;;;;3.92;3.17;;;15.10;85.50;;;;;;2070823;28;20102;-96
2021/09/19 00:38:02;;;;;;;3.72;2.70;;;15.10;85.60;;;;;;2081851;28;20041;-96
2021/09/19 00:39:22;;;;;;;3.67;2.75;;;15.10;85.60;;;;;;2072012;28;20097;-96
2021/09/19 00:40:41;;;;;;;4.63;3.00;;;15.10;85.70;;;;;;2063185;28;20038;-96
2021/09/19 00:42:00;;;;;;;4.47;3.20;;;15.10;85.70;;;;;;2069083;28;20046;-96
2021/09/19 00:43:19;;;;;;;4.80;3.25;;;15.10;85.80;;;;;;2073768;28;20038;-96
2021/09/19 00:44:39;;;;;;;4.40;3.13;;;15.00;85.80;;;;;;2069677;28;20035;-96
2021/09/19 00:45:58;;;;;;;4.45;3.20;;;15.00;85.80;;;;;;2074670;28;20034;-96
2021/09/19 00:47:17;;;;;;;4.22;3.25;;;15.10;85.90;;;;;;2074943;28;20042;-96
2021/09/19 00:48:37;;;;;;;5.35;3.40;;;15.00;86.00;;;;;;2065415;28;20047;-96
2021/09/19 00:49:56;;;;;;;4.50;3.50;;;15.00;86.00;;;;;;2059336;28;20038;-96
2021/09/19 00:51:16;;;;;;;4.40;3.42;;;15.00;86.00;;;;;;2061161;28;20106;-96
2021/09/19 00:52:37;;;;;;;5.00;3.45;;;15.00;86.10;;;;;;2069403;28;20196;-95
2021/09/19 00:53:57;;;;;;;6.07;3.80;;;15.00;86.10;;;;;;2069422;28;20054;-96
2021/09/19 00:55:18;;;;;;;4.50;3.30;;;15.00;86.20;;;;;;2067641;28;20432;-96
2021/09/19 00:56:39;;;;;;;3.80;2.85;;;15.00;86.20;;;;;;2071177;28;20691;-96
2021/09/19 00:58:04;;;;;;;4.03;2.95;;;15.00;86.20;;;;;;2070919;28;20034;-96
2021/09/19 00:59:24;;;;;;;4.47;3.05;;;15.00;86.30;;;;;;2058829;28;20035;-96
2021/09/19 01:00:49;;;;;;;5.40;3.70;;;15.00;86.40;;;;;;2067932;28;20046;-96
2021/09/19 01:02:10;;;;;;;4.45;3.50;;;15.00;86.40;;;;;;2057624;28;20035;-96
2021/09/19 01:03:31;;;;;;;4.40;3.40;;;15.00;86.40;;;;;;2059685;28;20129;-96
2021/09/19 01:04:50;;;;;;;;;;;15.00;86.40;;;;;;2058512;28;20042;-96
2021/09/19 01:06:10;;;;;;;5.22;3.40;;;15.00;86.40;;;;;;2067058;28;19913;-96
2021/09/19 01:07:30;;;;;;;5.80;3.60;;;14.90;86.40;;;;;;2066882;28;20512;-96
2021/09/19 01:08:50;;;;;;;4.93;3.38;;;14.90;86.40;;;;;;2061028;28;20047;-96
2021/09/19 01:10:10;;;;;;;5.20;3.72;;;14.90;86.40;;;;;;2082816;28;20045;-96
2021/09/19 01:11:30;;;;;;;4.43;3.30;;;14.90;86.60;;;;;;2067163;28;20034;-96
2021/09/19 01:12:52;;;;;;;5.00;3.55;;;14.90;86.60;;;;;;2049765;28;20043;-96
2021/09/19 01:14:15;;;;;;;5.68;3.72;;;14.80;86.60;;;;;;2065406;28;20042;-95
2021/09/19 01:15:35;;;;;;;4.97;3.78;;;14.90;86.80;;;;;;2062138;28;20038;-95
2021/09/19 01:16:57;;;;;;;4.75;3.58;;;14.80;86.80;;;;;;2067623;28;20034;-96
2021/09/19 01:18:18;;;;;;;5.97;3.90;;;14.80;86.80;;;;;;2074648;28;20042;-96
2021/09/19 01:19:38;;;;;;;5.20;3.88;;;14.80;86.80;;;;;;2061081;28;20027;-96
2021/09/19 01:20:58;;;;;;;4.45;3.50;;;14.80;86.90;;;;;;2068413;28;20069;-96
2021/09/19 01:22:17;;;;;;;4.47;3.53;;;14.80;86.90;;;;;;2063825;28;20133;-96
2021/09/19 01:23:38;;;;;;;6.57;4.18;;;14.80;87.00;;;;;;2058666;28;20078;-96
2021/09/19 01:25:03;;;;;;;6.68;4.32;;;14.80;87.00;;;;;;2071444;28;20306;-96
2021/09/19 01:26:24;;;;;;;6.95;3.65;;;14.80;87.10;;;;;;2075796;28;20046;-96
2021/09/19 01:27:46;;;;;;;5.35;3.97;;;14.80;87.20;;;;;;2070494;28;20493;-96
2021/09/19 01:29:07;;;;;;;5.32;4.15;;;14.80;87.20;;;;;;2066853;28;20098;-96
2021/09/19 01:30:26;;;;;;;;;;;14.80;87.30;;;;;;2065965;28;20077;-96
2021/09/19 01:31:46;;;;;;;4.55;3.38;;;14.80;87.30;;;;;;2073247;28;19913;-96
2021/09/19 01:33:07;;;;;;;5.18;3.65;;;14.70;87.20;;;;;;2072332;28;20049;-96
2021/09/19 01:34:27;;;;;;;4.78;3.47;;;14.70;87.20;;;;;;2069162;28;20038;-96
2021/09/19 01:35:48;;;;;;;5.37;3.90;;;14.70;87.30;;;;;;2067890;28;20068;-96
2021/09/19 01:37:07;;;;;;;6.47;3.78;;;14.70;87.30;;;;;;2061904;28;20309;-96
2021/09/19 01:38:27;;;;;;;5.30;3.83;;;14.70;87.40;;;;;;2053628;28;20521;-96
2021/09/19 01:39:48;;;;;;;6.07;4.25;;;14.70;87.50;;;;;;2062024;28;20125;-96
2021/09/19 01:41:09;;;;;;;6.10;4.15;;;14.70;87.50;;;;;;2071386;28;20117;-96
2021/09/19 01:42:28;;;;;;;;;;;14.70;87.60;;;;;;2067011;28;20428;-96
2021/09/19 01:43:48;;;;;;;6.57;4.53;;;14.70;87.40;;;;;;2059505;28;19918;-96
2021/09/19 01:45:09;;;;;;;5.40;3.80;;;14.70;87.50;;;;;;2078908;28;20112;-96
2021/09/19 01:46:28;;;;;;;6.78;4.38;;;14.70;87.50;;;;;;2067848;28;20038;-96
2021/09/19 01:47:49;;;;;;;4.75;3.72;;;14.70;87.50;;;;;;2065530;28;20043;-96
2021/09/19 01:49:09;;;;;;;6.95;5.10;;;14.70;87.50;;;;;;2059837;28;20076;-96
2021/09/19 01:50:28;;;;;;;5.00;4.22;;;14.70;87.70;;;;;;2068996;28;20120;-96
2021/09/19 01:51:48;;;;;;;5.95;4.32;;;14.60;87.70;;;;;;2072732;28;20077;-96
2021/09/19 01:53:08;;;;;;;7.18;4.90;;;14.70;87.80;;;;;;2057817;28;20066;-96
2021/09/19 01:54:28;;;;;;;5.45;4.18;;;14.60;87.80;;;;;;2049205;28;20051;-96
2021/09/19 01:55:48;;;;;;;6.50;5.35;;;14.60;87.80;;;;;;2063462;28;20117;-95
2021/09/19 01:57:07;;;;;;;7.07;5.20;;;14.60;87.80;;;;;;2056271;28;20039;-96
2021/09/19 01:58:30;;;;;;;5.90;4.78;;;14.60;87.90;;;;;;2079281;28;20029;-96
2021/09/19 01:59:54;;;;;;;6.05;4.72;;;14.60;88.00;;;;;;2085503;28;20029;-96
2021/09/19 02:01:15;;;;;;;6.22;4.20;;;14.60;88.00;;;;;;2074910;28;20037;-96
2021/09/19 02:02:36;;;;;;;6.20;4.18;;;14.60;88.10;;;;;;2079722;28;20030;-96
2021/09/19 02:03:55;;;;;;;6.55;4.80;;;14.60;88.10;;;;;;2076460;28;20046;-96
2021/09/19 02:05:14;;;;;;;5.68;4.25;;;14.60;88.20;;;;;;2064524;28;20066;-96
2021/09/19 02:06:34;;;;;;;5.30;3.90;;;14.60;88.20;;;;;;2065637;28;20058;-96
2021/09/19 02:07:53;;;;;;;6.53;4.68;;;14.50;88.20;;;;;;2070080;28;20034;-95
2021/09/19 02:09:12;;;;;;;5.90;4.78;;;14.60;88.30;;;;;;2073293;28;20421;-96
2021/09/19 02:10:32;;;;;;;6.00;4.47;;;14.50;88.30;;;;;;2064192;28;20497;-96
2021/09/19 02:11:53;;;;;;;5.75;4.47;;;14.50;88.30;;;;;;2061278;28;20050;-96
2021/09/19 02:13:13;;;;;;;6.13;4.45;;;14.50;88.40;;;;;;2075749;28;20049;-96
2021/09/19 02:14:41;;;;;;;7.95;5.63;;;14.60;88.40;;;;;;2058768;28;20042;-96
2021/09/19 02:16:20;;;;;;;5.93;4.50;;;14.50;88.40;;;;;;2063063;28;20050;-96
2021/09/19 02:17:41;;;;;;;7.03;5.07;;;14.50;88.50;;;;;;2076628;28;20038;-96
2021/09/19 02:19:00;;;;;;;5.93;4.80;;;14.50;88.50;;;;;;2072372;28;20038;-96
2021/09/19 02:20:20;;;;;;;6.30;4.78;;;14.50;88.50;;;;;;2063001;28;20050;-96
2021/09/19 02:21:42;;;;;;;6.47;4.82;;;14.50;88.50;;;;;;2068975;28;20086;-96
2021/09/19 02:23:01;;;;;;;;;;;14.50;88.60;;;;;;2064915;28;20047;-96
2021/09/19 02:24:21;;;;;;;6.55;4.15;;;14.50;88.50;;;;;;2062718;28;19969;-96
2021/09/19 02:25:40;;;;;;;6.55;4.35;;;14.50;88.50;;;;;;2057091;28;20034;-96
2021/09/19 02:27:07;;;;;;;6.15;4.70;;;14.50;88.60;;;;;;2061292;28;20062;-96
2021/09/19 02:28:27;;;;;;;5.30;3.97;;;14.50;88.60;;;;;;2063701;28;20487;-96
2021/09/19 02:29:47;;;;;;;6.05;4.53;;;14.50;88.60;;;;;;2063236;28;20034;-96
2021/09/19 02:31:06;;;;;;;;;;;14.50;88.70;;;;;;2070663;28;20046;-96
2021/09/19 02:32:26;;;;;;;7.28;4.95;;;14.40;88.60;;;;;;2064151;28;19913;-96
2021/09/19 02:33:45;;;;;;;7.75;5.30;;;14.40;88.70;;;;;;2053884;28;20035;-96
2021/09/19 02:35:07;;;;;;;7.10;5.53;;;14.50;88.70;;;;;;2066170;28;20521;-96
2021/09/19 02:36:27;;;;;;;6.15;4.80;;;14.50;88.80;;;;;;2081246;28;20034;-96
2021/09/19 02:37:49;;;;;;;6.32;4.43;;;14.50;88.90;;;;;;2061081;28;20043;-96
2021/09/19 02:39:09;;;;;;;7.57;5.80;;;14.40;88.80;;;;;;2065236;28;20042;-96
2021/09/19 02:40:31;;;;;;;6.38;5.47;;;14.40;88.90;;;;;;2064817;28;20042;-96
2021/09/19 02:41:50;;;;;;;7.88;5.60;;;14.40;89.00;;;;;;2075960;28;20057;-96
2021/09/19 02:43:11;;;;;;;6.35;5.07;;;14.40;89.00;;;;;;2066079;28;20054;-96
2021/09/19 02:44:31;;;;;;;6.43;4.75;;;14.40;89.00;;;;;;2076234;28;20066;-96
2021/09/19 02:45:51;;;;;;;6.50;5.18;;;14.40;89.00;;;;;;2076647;28;20042;-96
2021/09/19 02:47:11;;;;;;;6.25;5.18;;;14.40;89.00;;;;;;2078410;28;20044;-96
2021/09/19 02:48:30;;;;;;;7.05;5.47;;;14.40;89.00;;;;;;2064208;28;20489;-96
2021/09/19 02:49:50;;;;;;;7.35;5.22;;;14.40;89.10;;;;;;2060274;28;20034;-95
2021/09/19 02:51:10;;;;;;;5.90;4.95;;;14.40;89.10;;;;;;2057650;28;20110;-96
2021/09/19 02:52:30;;;;;;;6.55;4.63;;;14.40;89.10;;;;;;2059478;28;20071;-96
2021/09/19 02:53:49;;;;;;;6.60;4.88;;;14.40;89.10;;;;;;2061319;28;20038;-96
2021/09/19 02:55:10;;;;;;;6.30;5.18;;;14.40;89.20;;;;;;2069650;28;20037;-96
2021/09/19 02:56:30;;;;;;;6.43;4.88;;;14.40;89.20;;;;;;2081025;28;20030;-96
2021/09/19 02:57:50;;;;;;;6.70;5.07;;;14.40;89.20;;;;;;2087725;28;20029;-96
2021/09/19 02:59:10;;;;;;;6.68;5.15;;;14.40;89.20;;;;;;2082275;28;20026;-96
2021/09/19 03:00:29;;;;;;;6.78;5.22;;;14.40;89.30;;;;;;2058496;28;20034;-96
2021/09/19 03:01:49;;;;;;;6.45;4.80;;;14.40;89.30;;;;;;2067299;28;20125;-96
2021/09/19 03:03:08;;;;;;;6.18;4.75;;;14.30;89.30;;;;;;2073016;28;20066;-96
2021/09/19 03:04:27;;;;;;;6.25;4.82;;;14.40;89.40;;;;;;2072613;28;20207;-96
2021/09/19 03:05:47;;;;;;;6.45;5.32;;;14.40;89.40;;;;;;2072961;28;20042;-96
2021/09/19 03:07:07;;;;;;;6.75;5.28;;;14.30;89.40;;;;;;2065363;28;20146;-96
2021/09/19 03:08:27;;;;;;;7.28;5.57;;;14.30;89.50;;;;;;2063100;28;20290;-96
2021/09/19 03:09:46;;;;;;;7.55;5.10;;;14.30;89.50;;;;;;2066144;28;20026;-96
2021/09/19 03:11:07;;;;;;;7.50;5.60;;;14.30;89.60;;;;;;2064546;28;20027;-94
2021/09/19 03:12:27;;;;;;;7.00;5.68;;;14.30;89.60;;;;;;2063596;28;20030;-96
2021/09/19 03:13:53;;;;;;;6.47;5.25;;;14.30;89.60;;;;;;2065633;28;20448;-96
2021/09/19 03:15:13;;;;;;;7.57;6.00;;;14.30;89.70;;;;;;2061765;28;20031;-96
2021/09/19 03:16:32;;;;;;;6.63;5.47;;;14.30;89.70;;;;;;2077798;28;20116;-96
2021/09/19 03:17:53;;;;;;;6.57;5.68;;;14.30;89.70;;;;;;2060527;28;20450;-96
2021/09/19 03:19:13;;;;;;;8.20;5.43;;;14.30;89.80;;;;;;2065199;28;20041;-96
2021/09/19 03:20:34;;;;;;;7.25;5.72;;;14.30;89.80;;;;;;2075544;28;20053;-96
2021/09/19 03:21:54;;;;;;;6.55;5.28;;;14.30;89.80;;;;;;2075935;28;20046;-96
2021/09/19 03:23:16;;;;;;;;;;;14.30;89.90;;;;;;2060499;28;20444;-96
2021/09/19 03:24:39;;;;;;;6.40;4.95;;;14.30;89.70;;;;;;2067979;28;19902;-96
2021/09/19 03:25:58;;;;;;;6.10;4.53;;;14.30;90.10;;;;;;2076936;28;20042;-93
2021/09/19 03:27:18;;;;;;;6.75;5.28;;;14.30;89.60;;;;;;2071167;28;20046;-90
2021/09/19 03:28:37;;;;;;;8.15;5.30;;;14.30;89.60;;;;;;2064479;28;20034;-96
2021/09/19 03:29:58;;;;;;;6.80;5.05;;;14.30;89.60;;;;;;2066150;28;20087;-96
2021/09/19 03:31:18;;;;;;;5.97;4.70;;;14.30;89.60;;;;;;2061863;28;20043;-96
2021/09/19 03:32:38;;;;;;;5.68;4.22;;;14.40;89.60;;;;;;2069726;28;20058;-96
2021/09/19 03:33:58;;;;;;;5.95;4.78;;;14.40;89.70;;;;;;2068176;28;20042;-96
2021/09/19 03:35:18;;;;;;;6.72;5.20;;;14.40;89.60;;;;;;2063305;28;20034;-96
2021/09/19 03:36:43;;;;;;;7.63;5.20;;;14.40;89.70;;;;;;2074404;28;20480;-96
2021/09/19 03:38:04;;;;;;;6.60;5.28;;;14.40;89.70;;;;;;2072711;28;20570;-96
2021/09/19 03:39:23;;;;;;;8.38;5.40;;;14.40;89.70;;;;;;2067576;28;20030;-96
2021/09/19 03:40:43;;;;;;;8.13;6.07;;;14.40;89.70;;;;;;2063303;28;20042;-96
2021/09/19 03:42:03;;;;;;;7.20;5.78;;;14.40;89.80;;;;;;2070139;28;20025;-96
2021/09/19 03:43:24;;;;;;;7.90;5.95;;;14.30;89.80;;;;;;2074082;28;20026;-96
2021/09/19 03:44:43;;;;;;;7.78;5.78;;;14.30;89.80;;;;;;2075470;28;20066;-96
2021/09/19 03:46:03;;;;;;;7.05;5.80;;;14.30;89.80;;;;;;2064267;28;20463;-96
2021/09/19 03:47:22;;;;;;;6.93;5.47;;;14.30;89.90;;;;;;2071145;28;20034;-96
2021/09/19 03:48:42;;;;;;;7.25;5.45;;;14.30;89.90;;;;;;2072029;28;20064;-96
2021/09/19 03:50:04;;;;;;;7.20;5.97;;;14.30;90.00;;;;;;2062783;28;20046;-96
2021/09/19 03:51:23;;;;;;;8.75;6.22;;;14.30;90.00;;;;;;2077339;28;20045;-96
2021/09/19 03:52:42;;;;;;;7.90;5.95;;;14.40;90.00;;;;;;2065878;28;20046;-96
2021/09/19 03:54:02;;;;;;;7.88;5.90;;;14.30;90.00;;;;;;2070550;28;20133;-96
2021/09/19 03:55:22;;;;;;;7.50;5.78;;;14.40;90.00;;;;;;2072274;28;20037;-96
2021/09/19 03:56:41;;;;;;;7.13;5.85;;;14.30;90.00;;;;;;2072137;28;20038;-96
2021/09/19 03:58:01;;;;;;;7.00;5.18;;;14.30;90.00;;;;;;2073281;28;20130;-96
2021/09/19 03:59:20;;;;;;;7.70;5.75;;;14.30;90.00;;;;;;2064788;28;20043;-96
2021/09/19 04:00:41;;;;;;;7.50;6.00;;;14.30;90.00;;;;;;2063165;28;20038;-95
2021/09/19 04:02:03;;;;;;;7.50;6.05;;;14.30;90.00;;;;;;2070792;28;20141;-96
2021/09/19 04:03:32;;;;;;;6.28;5.10;;;14.30;90.00;;;;;;2086985;28;20037;-96
2021/09/19 04:04:52;;;;;;;7.28;5.60;;;14.30;90.00;;;;;;2090361;28;20034;-95
2021/09/19 04:06:13;;;;;;;7.47;5.78;;;14.30;90.00;;;;;;2069191;28;20038;-96
2021/09/19 04:07:32;;;;;;;7.45;5.82;;;14.30;90.10;;;;;;2063903;28;20042;-96
2021/09/19 04:08:52;;;;;;;7.68;5.50;;;14.30;90.10;;;;;;2063456;28;20038;-96
2021/09/19 04:10:13;;;;;;;6.80;5.47;;;14.30;90.10;;;;;;2061159;28;20030;-96
2021/09/19 04:11:33;;;;;;;6.47;5.22;;;14.30;90.10;;;;;;2080785;28;20504;-96
2021/09/19 04:12:54;;;;;;;7.82;5.90;;;14.20;90.10;;;;;;2060293;28;20050;-96
2021/09/19 04:14:13;;;;;;;8.02;5.50;;;14.20;90.10;;;;;;2066414;28;20045;-96
2021/09/19 04:15:32;;;;;;;7.70;5.80;;;14.20;90.10;;;;;;2065450;28;20493;-96
2021/09/19 04:16:54;;;;;;;7.50;6.10;;;14.20;90.20;;;;;;2062163;28;20047;-96
2021/09/19 04:18:14;;;;;;;7.85;6.25;;;14.20;90.20;;;;;;2067179;28;20054;-96
2021/09/19 04:19:33;;;;;;;7.85;6.50;;;14.20;90.20;;;;;;2066331;28;20043;-96
2021/09/19 04:21:00;;;;;;;8.10;6.38;;;14.20;90.20;;;;;;2057078;28;20102;-96
2021/09/19 04:22:23;;;;;;;8.80;6.70;;;14.20;90.20;;;;;;2073288;28;20045;-96
2021/09/19 04:23:43;;;;;;;7.15;6.10;;;14.20;90.20;;;;;;2069824;28;20034;-96
2021/09/19 04:25:15;;;;;;;7.70;6.00;;;14.20;90.20;;;;;;2066014;28;20521;-96
2021/09/19 04:26:38;;;;;;;7.55;5.80;;;14.20;90.30;;;;;;2075782;28;20026;-96
2021/09/19 04:27:57;;;;;;;7.07;5.60;;;14.20;90.30;;;;;;2068964;28;20177;-96
2021/09/19 04:29:16;;;;;;;7.03;5.53;;;14.20;90.30;;;;;;2060905;28;20071;-96
2021/09/19 04:30:43;;;;;;;6.88;5.40;;;14.10;90.20;;;;;;2058211;28;20035;-96
2021/09/19 04:32:04;;;;;;;7.03;5.38;;;14.10;90.30;;;;;;2063467;28;20039;-96
2021/09/19 04:33:24;;;;;;;7.35;5.85;;;14.10;90.30;;;;;;2076423;28;20050;-96
2021/09/19 04:34:46;;;;;;;7.43;6.15;;;14.10;90.30;;;;;;2083707;28;20049;-96
2021/09/19 04:36:05;;;;;;;6.40;5.60;;;14.10;90.30;;;;;;2069574;28;20034;-96
2021/09/19 04:37:27;;;;;;;7.07;5.82;;;14.10;90.30;;;;;;2079597;28;20049;-96
2021/09/19 04:38:46;;;;;;;7.82;6.20;;;14.00;90.30;;;;;;2077666;28;20033;-96
2021/09/19 04:40:07;;;;;;;6.82;5.60;;;14.10;90.40;;;;;;2082028;28;20066;-96
2021/09/19 04:41:27;;;;;;;7.07;5.55;;;14.00;90.30;;;;;;2072442;28;20104;-96
2021/09/19 04:42:48;;;;;;;6.45;5.10;;;14.10;90.40;;;;;;2077391;28;20053;-95
2021/09/19 04:44:15;;;;;;;6.70;5.20;;;14.00;90.40;;;;;;2061169;28;20043;-96
2021/09/19 04:45:42;;;;;;;6.07;5.05;;;14.00;90.40;;;;;;2069484;28;20049;-96
2021/09/19 04:47:06;;;;;;;7.45;5.50;;;14.00;90.40;;;;;;2070988;28;20039;-96
2021/09/19 04:48:25;;;;;;;7.82;5.93;;;14.00;90.40;;;;;;2071909;28;20488;-96
2021/09/19 04:49:46;;;;;;;6.65;5.53;;;13.90;90.40;;;;;;2077655;28;20034;-96
2021/09/19 04:51:19;;;;;;;5.75;4.60;;;13.90;90.50;;;;;;2072629;28;20046;-96
2021/09/19 04:52:42;;;;;;;;;;;13.90;90.50;;;;;;2080000;28;20085;-96
2021/09/19 04:55:57;;;;;;;5.63;4.45;;;13.80;90.40;;;;;;2069576;28;20050;-96
2021/09/19 04:57:17;;;;;;;5.90;4.60;;;13.80;90.40;;;;;;2064121;28;20062;-96
2021/09/19 04:58:40;;;;;;;7.28;5.35;;;13.80;90.40;;;;;;2062437;28;20038;-96
2021/09/19 04:59:59;;;;;;;7.88;5.22;;;13.80;90.50;;;;;;2068711;28;20042;-96
2021/09/19 05:01:34;;;;;;;6.45;5.10;;;13.80;90.50;;;;;;2064510;28;20348;-96
2021/09/19 05:02:57;;;;;;;6.65;5.03;;;13.80;90.50;;;;;;2072759;28;20110;-96
2021/09/19 05:04:18;;;;;;;7.38;5.72;;;13.80;90.50;;;;;;2050617;29;20048;-96
2021/09/19 05:05:37;;;;;;;6.78;5.40;;;13.80;90.60;;;;;;2053712;29;20039;-96
2021/09/19 05:06:58;;;;;;;7.60;5.50;;;13.80;90.60;;;;;;2047673;28;20034;-96
2021/09/19 05:08:29;;;;;;;6.35;5.53;;;13.80;90.60;;;;;;2055948;28;20050;-96
2021/09/19 05:09:53;;;;;;;8.00;5.80;;;13.70;90.60;;;;;;2062127;28;20027;-96
2021/09/19 05:11:14;;;;;;;7.82;6.25;;;13.80;90.60;;;;;;2055422;28;20062;-96
2021/09/19 05:12:54;;;;;;;6.78;5.70;;;13.70;90.60;;;;;;2059875;28;20042;-96
2021/09/19 05:14:17;;;;;;;6.15;5.13;;;13.70;90.60;;;;;;2031975;29;20040;-96
2021/09/19 05:15:39;;;;;;;7.30;5.60;;;13.70;90.60;;;;;;2036680;29;20040;-96
2021/09/19 05:17:19;;;;;;;7.07;5.75;;;13.70;90.60;;;;;;2020575;29;20635;-96
2021/09/19 05:18:48;;;;;;;6.82;5.53;;;13.70;90.60;;;;;;2030899;29;20033;-96
2021/09/19 05:20:15;;;;;;;7.22;5.97;;;13.70;90.70;;;;;;2034597;29;20036;-96
2021/09/19 05:21:35;;;;;;;7.78;6.25;;;13.60;90.70;;;;;;2028527;29;20033;-96
2021/09/19 05:22:55;;;;;;;7.40;6.05;;;13.60;90.70;;;;;;2026406;29;20100;-96
2021/09/19 05:24:15;;;;;;;6.70;5.43;;;13.60;90.70;;;;;;2027853;29;20064;-96
2021/09/19 05:25:41;;;;;;;7.03;5.57;;;13.60;90.70;;;;;;2022287;29;20104;-96
2021/09/19 05:27:03;;;;;;;6.82;5.30;;;13.60;90.80;;;;;;2027631;29;20052;-96
2021/09/19 05:28:22;;;;;;;;;;;13.60;90.80;;;;;;2030243;29;20053;-96
2021/09/19 05:29:45;;;;;;;9.32;5.80;;;13.50;90.70;;;;;;2035606;29;20358;-96
2021/09/19 05:31:06;;;;;;;7.45;6.00;;;13.60;90.70;;;;;;2029898;29;20044;-96
2021/09/19 05:32:27;;;;;;;7.15;5.43;;;13.50;90.70;;;;;;2026069;29;20040;-96
2021/09/19 05:33:54;;;;;;;7.60;6.07;;;13.50;90.80;;;;;;2019623;29;20033;-96
2021/09/19 05:35:13;;;;;;;7.85;5.80;;;13.50;90.80;;;;;;2021165;29;20172;-96
2021/09/19 05:36:59;;;;;;;7.57;6.10;;;13.50;90.80;;;;;;2039769;29;20023;-94
2021/09/19 05:38:18;;;;;;;7.93;6.10;;;13.50;90.80;;;;;;2041523;28;20159;-96
2021/09/19 05:39:38;;;;;;;6.78;5.50;;;13.50;90.80;;;;;;2032371;29;20048;-96
2021/09/19 05:40:59;;;;;;;8.30;6.30;;;13.50;90.90;;;;;;2025378;29;20151;-96
2021/09/19 05:42:19;;;;;;;7.85;6.38;;;13.50;90.90;;;;;;2029438;29;20073;-96
2021/09/19 05:43:47;;;;;;;8.27;6.60;;;13.40;90.90;;;;;;2025110;29;20037;-96
2021/09/19 05:45:08;;;;;;;8.73;6.45;;;13.40;90.90;;;;;;2034340;29;20100;-96
2021/09/19 05:46:28;;;;;;;7.22;5.68;;;13.50;90.90;;;;;;2031121;29;20532;-96
2021/09/19 05:47:49;;;;;;;8.23;6.68;;;13.50;90.90;;;;;;2026517;29;20049;-96
2021/09/19 05:49:10;;;;;;;7.47;5.95;;;13.40;90.90;;;;;;2028215;29;20053;-91
2021/09/19 05:50:31;;;;;;;;;;;13.50;90.90;;;;;;2032235;29;20024;-96
2021/09/19 05:51:51;;;;;;;6.43;5.18;;;13.50;90.90;;;;;;2038116;29;19934;-96
2021/09/19 05:53:11;;;;;;;6.85;5.03;;;13.50;90.90;;;;;;2033743;29;20053;-96
2021/09/19 05:54:30;;;;;;;6.18;5.10;;;13.50;90.90;;;;;;2039370;29;20052;-96
2021/09/19 05:55:52;;;;;;;6.72;5.40;;;13.50;90.90;;;;;;2028728;29;20061;-96
2021/09/19 05:57:13;;;;;;;7.43;5.97;;;13.50;90.90;;;;;;2033947;29;20033;-96
2021/09/19 05:58:32;;;;;;;7.15;5.82;;;13.50;90.90;;;;;;2026208;29;20049;-96
2021/09/19 05:59:52;;;;;;;7.10;5.63;;;13.50;90.90;;;;;;2022095;29;20085;-96
2021/09/19 06:01:14;;;;;;;7.38;5.50;;;13.50;90.90;;;;;;2027510;29;20172;-96
2021/09/19 06:02:33;;;;;;;8.25;5.78;;;13.50;90.90;;;;;;2023732;29;20049;-96
2021/09/19 06:03:52;;;;;;;8.18;5.93;;;13.50;90.90;;;;;;2027688;29;20040;-96
2021/09/19 06:05:16;;;;;;;7.93;6.15;;;13.50;90.90;;;;;;2035388;29;20056;-96
2021/09/19 06:06:35;;;;;;;8.50;7.13;;;13.50;90.90;;;;;;2044428;29;20044;-96
2021/09/19 06:07:55;;;;;;;8.48;6.47;;;13.50;90.90;;;;;;2038507;29;20028;-90
2021/09/19 06:09:14;;;;;;;7.75;6.38;;;13.50;90.90;;;;;;2062460;28;20034;-82
2021/09/19 06:10:34;;;;;;;7.45;6.20;;;13.50;91.00;;;;;;2063899;28;20075;-96
2021/09/19 06:11:54;;;;;;;6.70;5.60;;;13.50;91.00;;;;;;2053884;28;20114;-96
2021/09/19 06:13:13;;;;;;;8.73;6.60;;;13.50;91.00;;;;;;2053504;28;20107;-92
2021/09/19 06:14:32;;;;;;;6.55;5.45;;;13.50;91.00;;;;;;2050346;28;20295;-96
2021/09/19 06:15:52;;;;;;;7.30;5.55;;;13.50;91.00;;;;;;2053491;28;20050;-95
2021/09/19 06:17:11;;;;;;;6.60;5.75;;;13.50;91.20;;;;;;2058591;28;20031;-94
2021/09/19 06:18:31;;;;;;;6.78;5.43;;;13.50;91.00;;;;;;2033911;29;20051;-95
2021/09/19 06:19:51;;;;;;;8.48;6.55;;;13.50;91.00;;;;;;2042117;29;20044;-96
2021/09/19 06:21:11;;;;;;;8.15;5.65;;;13.50;91.00;;;;;;2037103;29;20044;-96
2021/09/19 06:22:33;;;;;;;7.97;6.35;;;13.60;91.00;;;;;;2043523;29;20162;-96
2021/09/19 06:23:53;;;;;;;7.13;6.30;;;13.50;91.00;;;;;;2042684;29;20059;-96
2021/09/19 06:25:12;;;;;;;9.38;6.32;;;13.60;91.10;;;;;;2043415;29;20039;-94
2021/09/19 06:26:31;;;;;;;8.18;6.03;;;13.50;91.00;;;;;;2028434;29;20047;-95
2021/09/19 06:27:51;;;;;;;7.93;6.40;;;13.60;91.00;;;;;;2033676;29;20186;-94
2021/09/19 06:29:10;;;;;;;8.20;6.30;;;13.50;91.00;;;;;;2041538;28;20766;-95
2021/09/19 06:30:29;;;;;;;7.10;5.90;;;13.60;91.00;;;;;;2039463;29;20048;-95
2021/09/19 06:31:48;;;;;;;8.32;6.10;;;13.50;91.00;;;;;;2042383;28;20043;-96
2021/09/19 06:33:08;;;;;;;8.35;6.53;;;13.50;91.00;;;;;;2045488;28;20762;-95
2021/09/19 06:34:27;;;;;;;8.55;6.82;;;13.60;91.00;;;;;;2044692;29;20016;-95
2021/09/19 06:35:47;;;;;;;7.70;6.20;;;13.60;91.00;;;;;;2051204;28;20047;-95
2021/09/19 06:37:07;;;;;;;7.82;6.38;;;13.60;91.00;;;;;;2052370;28;20035;-95
2021/09/19 06:38:26;;;;;;;8.07;6.47;;;13.60;91.00;;;;;;2047956;28;20035;-95
2021/09/19 06:39:46;;;;;;;8.00;6.28;;;13.60;91.00;;;;;;2051120;28;20034;-95
2021/09/19 06:41:05;;;;;;;7.60;6.05;;;13.60;91.00;;;;;;2047788;28;20426;-93
2021/09/19 06:42:25;;;;;;;8.02;6.18;;;13.70;91.00;;;;;;2050570;28;20066;-96
2021/09/19 06:43:44;;;;;;;9.00;6.55;;;13.70;91.00;;;;;;2043801;28;20130;-96
2021/09/19 06:45:04;;;;;;;8.40;6.35;;;13.70;91.00;;;;;;2053584;28;20047;-96
2021/09/19 06:46:27;;;;;;;8.48;6.47;;;13.70;91.00;;;;;;2057094;28;20102;-95
2021/09/19 06:47:46;;;;;;;7.13;6.00;;;13.70;91.00;;;;;;2049177;28;20039;-95
2021/09/19 06:49:05;;;;;;;8.60;6.97;;;13.70;90.90;;;;;;2036879;29;20063;-95
2021/09/19 06:50:25;;;;;;;8.73;6.00;;;13.70;90.90;;;;;;2049339;28;20047;-96
2021/09/19 06:51:44;;;;;;;6.45;5.38;;;13.70;90.90;;;;;;2051854;28;20047;-95
2021/09/19 06:53:04;;;;;;;9.23;6.00;;;13.80;90.90;;;;;;2042964;29;20043;-96
2021/09/19 06:54:32;;;;;;;7.45;6.03;;;13.80;91.20;;;;;;2049755;28;20047;-96
2021/09/19 06:55:53;;;;;;;7.50;6.10;;;13.80;90.90;;;;;;2042140;29;20056;-96
2021/09/19 06:57:12;;;;;;;8.05;6.53;;;13.80;90.90;;;;;;2043690;28;20036;-96
2021/09/19 06:58:32;;;;;;;7.90;6.43;;;13.80;90.90;;;;;;2042610;28;20039;-95
2021/09/19 06:59:52;;;;;;;7.47;5.47;;;13.80;90.90;;;;;;2038204;29;20044;-95
2021/09/19 07:01:11;;;;;;;7.43;5.88;;;13.80;90.90;;;;;;2030658;29;20044;-95
2021/09/19 07:02:39;;;;;;;7.82;5.82;;;13.90;90.90;;;;;;2046686;28;20039;-96
2021/09/19 07:04:09;;;;;;;8.88;6.40;;;13.90;90.90;;;;;;2049211;29;20039;-96